TimeCDT,TemperatureF,Dew PointF,Humidity,Sea Level PressureIn,VisibilityMPH,Wind Direction,Wind SpeedMPH,Gust SpeedMPH,PrecipitationIn,Events,Conditions,WindDirDegrees,DateUTC
12:15 AM,71.1,62.1,73,29.92,10.0,South,8.1,-,N/A,,Clear,170,2014-04-26 05:15:00
12:35 AM,70.2,62.6,77,29.91,10.0,SSE,9.2,-,N/A,,Clear,160,2014-04-26 05:35:00
12:55 AM,69.6,62.6,78,29.90,10.0,South,9.2,-,N/A,,Clear,170,2014-04-26 05:55:00
1:15 AM,69.1,62.8,80,29.90,10.0,South,10.4,-,N/A,,Clear,180,2014-04-26 06:15:00
1:35 AM,68.2,62.4,82,29.90,10.0,South,6.9,-,N/A,,Clear,180,2014-04-26 06:35:00
1:55 AM,68.0,62.6,83,29.89,10.0,South,6.9,-,N/A,,Clear,170,2014-04-26 06:55:00
2:15 AM,67.3,62.4,84,29.89,10.0,South,6.9,-,N/A,,Clear,170,2014-04-26 07:15:00
2:35 AM,67.5,61.5,81,29.87,10.0,South,8.1,-,N/A,,Clear,170,2014-04-26 07:35:00
2:55 AM,66.7,60.3,80,29.87,10.0,South,8.1,-,N/A,,Clear,180,2014-04-26 07:55:00
3:15 AM,66.9,60.1,79,29.86,10.0,South,9.2,-,N/A,,Clear,180,2014-04-26 08:15:00
3:35 AM,65.8,59.9,81,29.86,10.0,South,5.8,-,N/A,,Clear,170,2014-04-26 08:35:00
3:55 AM,65.7,60.3,83,29.85,10.0,SSE,6.9,-,N/A,,Clear,160,2014-04-26 08:55:00
4:15 AM,64.6,60.8,88,29.84,10.0,SE,4.6,-,N/A,,Clear,130,2014-04-26 09:15:00
4:35 AM,64.6,61.2,89,29.84,10.0,South,6.9,-,N/A,,Clear,170,2014-04-26 09:35:00
4:55 AM,63.7,60.6,90,29.84,10.0,South,5.8,-,N/A,,Clear,190,2014-04-26 09:55:00
5:15 AM,63.3,60.3,90,29.84,10.0,South,6.9,-,N/A,,Clear,190,2014-04-26 10:15:00
5:35 AM,63.5,60.6,90,29.85,10.0,SSW,9.2,-,N/A,,Scattered Clouds,200,2014-04-26 10:35:00
5:55 AM,64.0,60.8,89,29.84,10.0,SSW,8.1,-,N/A,,Mostly Cloudy,200,2014-04-26 10:55:00
6:15 AM,64.0,60.3,87,29.85,10.0,SSW,11.5,18.4,N/A,,Overcast,200,2014-04-26 11:15:00
6:35 AM,64.4,60.4,87,29.85,10.0,South,6.9,-,N/A,,Overcast,180,2014-04-26 11:35:00
6:55 AM,64.6,60.8,88,29.84,10.0,South,8.1,-,N/A,,Overcast,180,2014-04-26 11:55:00
7:15 AM,64.6,60.8,88,29.84,7.0,South,9.2,-,N/A,,Overcast,180,2014-04-26 12:15:00
7:35 AM,64.9,61.0,87,29.84,7.0,SSW,8.1,-,N/A,,Overcast,200,2014-04-26 12:35:00
7:55 AM,65.5,61.3,86,29.84,7.0,South,10.4,-,N/A,,Overcast,180,2014-04-26 12:55:00
8:15 AM,66.2,61.7,85,29.85,7.0,South,11.5,-,N/A,,Overcast,190,2014-04-26 13:15:00
8:35 AM,66.6,61.7,84,29.85,7.0,SSW,12.7,-,N/A,,Overcast,200,2014-04-26 13:35:00
8:55 AM,66.6,62.1,85,29.85,7.0,South,12.7,-,N/A,,Overcast,190,2014-04-26 13:55:00
9:15 AM,66.9,62.2,85,29.85,5.0,South,12.7,-,N/A,,Haze,180,2014-04-26 14:15:00
9:35 AM,67.1,62.2,84,29.85,5.0,South,11.5,-,N/A,,Haze,170,2014-04-26 14:35:00
9:55 AM,67.8,62.4,83,29.85,5.0,South,9.2,-,N/A,,Haze,180,2014-04-26 14:55:00
10:15 AM,68.2,62.6,82,29.85,5.0,South,10.4,-,N/A,,Haze,180,2014-04-26 15:15:00
10:35 AM,69.6,62.6,78,29.87,7.0,South,10.4,16.1,N/A,,Overcast,190,2014-04-26 15:35:00
10:55 AM,71.6,62.6,73,29.86,7.0,South,12.7,-,N/A,,Overcast,180,2014-04-26 15:55:00
11:15 AM,72.1,61.7,70,29.85,7.0,South,12.7,19.6,N/A,,Mostly Cloudy,190,2014-04-26 16:15:00
11:35 AM,73.4,62.2,68,29.85,10.0,SSW,9.2,-,N/A,,Mostly Cloudy,210,2014-04-26 16:35:00
11:55 AM,74.8,62.1,64,29.84,10.0,South,9.2,19.6,N/A,,Mostly Cloudy,190,2014-04-26 16:55:00
12:15 PM,75.6,62.1,63,29.84,10.0,South,15.0,20.7,N/A,,Mostly Cloudy,190,2014-04-26 17:15:00
12:35 PM,77.4,62.6,60,29.83,10.0,South,12.7,16.1,N/A,,Scattered Clouds,180,2014-04-26 17:35:00
12:55 PM,77.9,62.4,59,29.81,10.0,SSW,9.2,16.1,N/A,,Scattered Clouds,210,2014-04-26 17:55:00
1:15 PM,78.8,62.2,57,29.80,10.0,South,10.4,16.1,N/A,,Scattered Clouds,190,2014-04-26 18:15:00
1:35 PM,80.2,61.9,53,29.79,10.0,South,12.7,21.9,N/A,,Scattered Clouds,180,2014-04-26 18:35:00
1:55 PM,81.1,61.9,52,29.78,10.0,South,15.0,-,N/A,,Scattered Clouds,180,2014-04-26 18:55:00
2:15 PM,81.9,62.2,51,29.77,10.0,SE,8.1,17.3,N/A,,Clear,140,2014-04-26 19:15:00
2:35 PM,82.0,62.6,52,29.75,10.0,South,15.0,20.7,N/A,,Clear,180,2014-04-26 19:35:00
2:55 PM,81.3,62.2,52,29.75,10.0,South,13.8,20.7,N/A,,Clear,170,2014-04-26 19:55:00
3:15 PM,82.0,62.2,51,29.74,10.0,South,15.0,21.9,N/A,,Clear,180,2014-04-26 20:15:00
3:35 PM,81.3,62.4,52,29.73,10.0,South,12.7,20.7,N/A,,Scattered Clouds,170,2014-04-26 20:35:00
3:55 PM,82.0,62.2,51,29.73,10.0,SSE,15.0,18.4,N/A,,Scattered Clouds,150,2014-04-26 20:55:00
4:15 PM,80.6,62.2,53,29.72,10.0,SSE,16.1,20.7,N/A,,Mostly Cloudy,160,2014-04-26 21:15:00
4:35 PM,80.1,62.2,54,29.71,10.0,SSE,13.8,18.4,N/A,,Mostly Cloudy,150,2014-04-26 21:35:00
4:55 PM,79.7,61.9,54,29.72,10.0,South,16.1,24.2,N/A,,Overcast,170,2014-04-26 21:55:00
5:15 PM,79.0,62.1,56,29.72,10.0,SSE,12.7,20.7,N/A,,Overcast,160,2014-04-26 22:15:00
5:35 PM,79.2,62.2,56,29.72,10.0,SSE,13.8,19.6,N/A,,Mostly Cloudy,160,2014-04-26 22:35:00
5:55 PM,79.0,62.6,57,29.71,10.0,SSE,10.4,16.1,N/A,,Mostly Cloudy,160,2014-04-26 22:55:00
6:15 PM,80.1,62.4,55,29.70,10.0,SSE,12.7,18.4,N/A,,Scattered Clouds,150,2014-04-26 23:15:00
6:35 PM,80.2,62.6,55,29.70,10.0,SSE,11.5,-,N/A,,Mostly Cloudy,160,2014-04-26 23:35:00
6:55 PM,79.7,62.8,56,29.70,10.0,SSE,11.5,17.3,N/A,,Scattered Clouds,160,2014-04-26 23:55:00
7:15 PM,80.1,63.1,56,29.69,10.0,South,12.7,17.3,N/A,,Scattered Clouds,170,2014-04-27 00:15:00
7:35 PM,79.0,63.1,58,29.68,10.0,SSE,8.1,-,N/A,,Clear,160,2014-04-27 00:35:00
7:55 PM,78.8,63.0,58,29.67,10.0,SSE,5.8,-,N/A,,Clear,150,2014-04-27 00:55:00
8:15 PM,77.9,63.1,60,29.67,10.0,SE,3.5,-,N/A,,Clear,130,2014-04-27 01:15:00
8:35 PM,77.2,63.5,63,29.67,10.0,ESE,3.5,-,N/A,,Clear,120,2014-04-27 01:35:00
8:55 PM,76.5,63.5,64,29.67,10.0,SE,3.5,-,N/A,,Clear,130,2014-04-27 01:55:00
9:15 PM,77.0,63.7,63,29.67,10.0,SE,6.9,-,N/A,,Clear,140,2014-04-27 02:15:00
9:35 PM,76.6,64.6,66,29.67,10.0,SE,9.2,17.3,N/A,,Clear,140,2014-04-27 02:35:00
9:55 PM,75.9,65.7,70,29.68,10.0,SSE,9.2,-,N/A,,Clear,150,2014-04-27 02:55:00
10:15 PM,75.2,66.2,73,29.68,10.0,SE,8.1,-,N/A,,Clear,140,2014-04-27 03:15:00
10:35 PM,74.7,66.9,77,29.68,10.0,SSE,9.2,16.1,N/A,,Scattered Clouds,150,2014-04-27 03:35:00
10:55 PM,74.3,67.1,78,29.68,7.0,SSE,11.5,-,N/A,,Overcast,150,2014-04-27 03:55:00
11:15 PM,73.9,67.6,81,29.68,7.0,SSE,8.1,16.1,N/A,,Overcast,150,2014-04-27 04:15:00
11:35 PM,73.6,68.0,83,29.68,7.0,SSE,9.2,-,N/A,,Overcast,160,2014-04-27 04:35:00
11:55 PM,73.4,67.8,83,29.68,7.0,SSE,8.1,-,N/A,,Overcast,160,2014-04-27 04:55:00